createdAt,value
2019-04-07T00:01:34.445Z,99.90
2019-04-07T00:04:04.313Z,99.90
2019-04-07T00:06:33.653Z,99.90
2019-04-07T00:09:03.013Z,99.90
2019-04-07T00:21:30.172Z,99.90
2019-04-07T00:24:01.735Z,99.90
2019-04-07T00:28:59.962Z,99.90
2019-04-07T00:31:29.430Z,99.90
2019-04-07T00:36:27.971Z,99.90
2019-04-07T00:41:26.459Z,99.90
2019-04-07T00:56:22.364Z,99.90
2019-04-07T01:01:20.873Z,99.90
2019-04-07T01:03:50.348Z,99.90
2019-04-07T01:08:49.103Z,99.90
2019-04-07T01:11:18.959Z,99.90
2019-04-07T01:16:17.466Z,99.90
2019-04-07T01:26:14.465Z,99.90
2019-04-07T01:28:44.064Z,99.90
2019-04-07T01:31:13.395Z,99.90
2019-04-07T01:33:43.130Z,99.90
2019-04-07T01:38:42.201Z,99.90
2019-04-07T01:41:13.244Z,99.90
2019-04-07T01:54:13.420Z,99.90
2019-04-07T02:02:06.001Z,99.90
2019-04-07T02:04:43.548Z,99.90
2019-04-07T02:20:05.122Z,99.90
2019-04-07T02:22:36.622Z,99.90
2019-04-07T02:25:20.784Z,99.90
2019-04-07T02:27:57.766Z,99.90
2019-04-07T02:30:31.683Z,99.90
2019-04-07T02:33:18.803Z,99.90
2019-04-07T02:35:50.445Z,99.90
2019-04-07T02:41:08.822Z,99.90
2019-04-07T02:43:46.491Z,99.90
2019-04-07T02:49:14.272Z,99.90
2019-04-07T02:57:24.217Z,99.90
2019-04-07T02:59:55.824Z,99.90
2019-04-07T03:02:35.901Z,99.90
2019-04-07T03:05:20.987Z,99.90
2019-04-07T03:18:17.790Z,99.90
2019-04-07T03:23:53.383Z,99.90
2019-04-07T03:29:14.143Z,99.90
2019-04-07T03:31:46.814Z,99.90
2019-04-07T03:34:23.349Z,99.90
2019-04-07T03:37:15.100Z,99.90
2019-04-07T03:39:31.955Z,99.90
2019-04-07T03:44:51.191Z,99.90
2019-04-07T03:47:25.787Z,99.90
2019-04-07T03:52:30.764Z,99.90
2019-04-07T03:55:04.935Z,99.90
2019-04-07T03:57:36.445Z,99.90
2019-04-07T04:05:34.141Z,99.90
2019-04-07T04:10:56.747Z,99.90
2019-04-07T04:28:25.429Z,99.90
2019-04-07T04:33:23.920Z,99.90
2019-04-07T04:35:53.836Z,99.90
2019-04-07T04:38:24.176Z,99.90
2019-04-07T04:40:53.608Z,99.90
2019-04-07T04:43:23.314Z,99.90
2019-04-07T04:48:23.770Z,99.90
2019-04-07T04:50:53.235Z,99.90
2019-04-07T04:55:52.065Z,99.90
2019-04-07T04:58:21.473Z,99.90
2019-04-07T05:03:20.308Z,99.90
2019-04-07T05:08:18.813Z,99.90
2019-04-07T05:10:48.258Z,99.90
2019-04-07T05:18:16.648Z,99.90
2019-04-07T05:25:44.952Z,99.90
2019-04-07T05:28:14.312Z,99.90
2019-04-07T05:33:14.000Z,99.90
2019-04-07T05:35:44.071Z,99.90
2019-04-07T05:38:13.623Z,99.90
2019-04-07T05:50:40.729Z,99.90
2019-04-07T05:58:10.601Z,99.90
2019-04-07T06:03:09.861Z,99.90
2019-04-07T06:05:39.753Z,99.90
2019-04-07T06:10:40.330Z,99.90
2019-04-07T06:18:09.635Z,99.90
2019-04-07T06:25:41.504Z,99.90
2019-04-07T06:30:38.074Z,99.90
2019-04-07T06:35:36.831Z,99.90
2019-04-07T06:38:07.825Z,99.90
2019-04-07T06:43:07.447Z,99.90
2019-04-07T06:45:52.798Z,99.90
2019-04-07T06:53:52.419Z,99.90
2019-04-07T07:01:50.615Z,99.90
2019-04-07T07:07:02.349Z,99.90
2019-04-07T07:12:18.684Z,99.90
2019-04-07T07:17:18.552Z,99.90
2019-04-07T07:20:01.771Z,99.90
2019-04-07T07:25:12.151Z,99.90
2019-04-07T07:27:43.168Z,99.90
2019-04-07T07:37:43.482Z,99.90
2019-04-07T07:47:43.812Z,99.90
2019-04-07T07:50:13.589Z,99.90
2019-04-07T07:55:13.153Z,99.90
2019-04-07T07:57:42.573Z,99.90
2019-04-07T08:00:12.564Z,99.90
2019-04-07T08:02:41.901Z,99.90
2019-04-07T08:07:44.362Z,99.80
2019-04-07T08:10:14.823Z,99.90
2019-04-07T08:25:15.338Z,99.90
2019-04-07T08:27:45.260Z,99.90
2019-04-07T08:40:17.015Z,99.90
2019-04-07T08:42:48.488Z,99.90
2019-04-07T08:45:17.971Z,99.90
2019-04-07T08:47:48.885Z,99.90
2019-04-07T08:50:20.822Z,96.00
2019-04-07T09:00:22.842Z,99.90
2019-04-07T09:28:55.439Z,98.40
2019-04-07T09:36:49.930Z,95.90
2019-04-07T09:39:53.839Z,97.40
2019-04-07T10:00:14.461Z,93.80
2019-04-07T10:08:19.508Z,97.40
2019-04-07T10:16:32.076Z,96.20
2019-04-07T10:27:04.657Z,93.40
2019-04-07T10:29:43.824Z,86.00
2019-04-07T10:59:18.578Z,79.30
2019-04-07T11:01:53.408Z,90.60
2019-04-07T11:09:51.166Z,87.30
2019-04-07T11:12:34.685Z,91.40
2019-04-07T11:25:46.112Z,87.20
2019-04-07T11:31:16.821Z,79.40
2019-04-07T11:41:39.231Z,89.50
2019-04-07T11:44:26.402Z,78.90
2019-04-07T11:49:47.454Z,85.10
2019-04-07T11:57:45.622Z,90.50
2019-04-07T12:00:23.787Z,90.20
2019-04-07T12:10:58.450Z,89.50
2019-04-07T12:16:09.269Z,89.80
2019-04-07T12:24:09.749Z,90.40
2019-04-07T12:31:53.289Z,91.30
2019-04-07T12:47:49.351Z,90.10
2019-04-07T12:50:32.823Z,91.20
2019-04-07T12:55:53.360Z,87.10
2019-04-07T13:03:49.519Z,83.70
2019-04-07T13:06:20.616Z,91.30
2019-04-07T13:24:51.859Z,86.20
2019-04-07T13:27:37.214Z,90.60
2019-04-07T13:30:19.188Z,82.70
2019-04-07T13:35:28.644Z,91.30
2019-04-07T13:38:17.854Z,91.50
2019-04-07T13:40:52.025Z,90.80
2019-04-07T13:56:28.573Z,90.10
2019-04-07T13:59:16.065Z,90.20
2019-04-07T14:01:54.562Z,87.80
2019-04-07T14:04:42.382Z,89.50
2019-04-07T14:07:19.840Z,89.70
2019-04-07T14:12:41.147Z,89.00
2019-04-07T14:23:06.152Z,88.00
2019-04-07T14:41:43.481Z,86.90
2019-04-07T14:44:15.122Z,87.00
2019-04-07T14:46:52.385Z,84.60
2019-04-07T14:49:39.540Z,86.20
2019-04-07T14:57:29.185Z,87.20
2019-04-07T15:02:41.196Z,85.40
2019-04-07T15:07:44.021Z,85.60
2019-04-07T15:10:20.133Z,75.90
2019-04-07T15:17:56.172Z,85.00
2019-04-07T15:20:25.543Z,79.40
2019-04-07T15:27:58.918Z,85.10
2019-04-07T15:30:27.670Z,84.70
2019-04-07T15:35:28.027Z,85.30
2019-04-07T15:40:26.565Z,85.30
2019-04-07T15:45:26.645Z,75.20
2019-04-07T15:47:56.475Z,84.30
2019-04-07T15:52:56.892Z,83.80
2019-04-07T16:05:27.858Z,82.80
2019-04-07T16:07:57.777Z,83.30
2019-04-07T16:12:58.806Z,75.20
2019-04-07T16:15:27.431Z,83.80
2019-04-07T16:37:58.374Z,82.40
2019-04-07T16:43:07.731Z,84.00
2019-04-07T16:50:28.271Z,83.10
2019-04-07T16:58:14.602Z,85.60
2019-04-07T17:05:43.067Z,86.00
2019-04-07T17:10:42.530Z,87.00
2019-04-07T17:18:39.792Z,87.70
2019-04-07T17:28:46.036Z,89.40
2019-04-07T17:31:15.548Z,89.50
2019-04-07T17:44:06.999Z,90.60
2019-04-07T17:46:40.774Z,81.70
2019-04-07T17:52:11.201Z,91.50
2019-04-07T17:54:58.935Z,90.50
2019-04-07T18:00:21.643Z,92.10
2019-04-07T18:05:31.277Z,92.90
2019-04-07T18:11:07.588Z,93.40
2019-04-07T18:13:57.457Z,91.40
2019-04-07T18:16:40.778Z,94.20
2019-04-07T18:22:08.182Z,95.00
2019-04-07T18:27:25.452Z,95.70
2019-04-07T18:40:58.440Z,97.00
2019-04-07T18:48:53.331Z,96.90
2019-04-07T18:59:23.503Z,96.40
2019-04-07T19:01:57.836Z,96.70
2019-04-07T19:04:44.547Z,96.60
2019-04-07T19:09:50.844Z,91.70
2019-04-07T19:15:06.647Z,94.20
2019-04-07T19:17:36.212Z,95.70
2019-04-07T19:20:26.549Z,95.80
2019-04-07T19:28:25.135Z,95.60
2019-04-07T19:33:35.664Z,96.00
2019-04-07T19:36:15.344Z,96.10
2019-04-07T19:38:54.375Z,94.60
2019-04-07T19:41:41.369Z,96.00
2019-04-07T19:47:14.180Z,98.40
2019-04-07T19:50:01.059Z,98.30
2019-04-07T19:52:50.315Z,97.00
2019-04-07T19:58:26.731Z,99.10
2019-04-07T20:01:06.685Z,98.20
2019-04-07T20:03:40.172Z,98.50
2019-04-07T20:19:40.269Z,92.70
2019-04-07T20:27:32.305Z,97.60
2019-04-07T20:35:27.257Z,97.20
2019-04-07T20:48:59.266Z,95.00
2019-04-07T20:51:36.873Z,96.70
2019-04-07T20:56:57.479Z,93.90
2019-04-07T20:59:31.443Z,96.00
2019-04-07T21:04:42.180Z,97.40
2019-04-07T21:07:25.006Z,97.60
2019-04-07T21:12:31.483Z,97.70
2019-04-07T21:33:11.168Z,93.20
2019-04-07T21:35:42.643Z,98.60
2019-04-07T21:38:24.432Z,98.40
2019-04-07T21:46:34.956Z,98.30
2019-04-07T21:59:39.799Z,98.00
2019-04-07T22:02:13.693Z,98.50
2019-04-07T22:04:54.075Z,98.70
2019-04-07T22:07:35.530Z,98.70
2019-04-07T22:10:09.441Z,99.40
2019-04-07T22:12:38.936Z,98.80
2019-04-07T22:25:10.141Z,99.20
2019-04-07T22:30:11.774Z,99.40
2019-04-07T22:32:41.151Z,99.30
2019-04-07T22:37:40.063Z,99.40
2019-04-07T22:42:51.186Z,98.70
2019-04-07T22:47:52.416Z,99.90
2019-04-07T22:50:22.274Z,99.90
2019-04-07T22:52:52.205Z,99.80
2019-04-07T22:55:21.602Z,95.80
2019-04-07T23:02:56.478Z,99.90
2019-04-07T23:10:25.116Z,99.90
2019-04-07T23:12:55.250Z,99.90
2019-04-07T23:15:37.285Z,99.90
2019-04-07T23:17:55.911Z,99.90
2019-04-07T23:22:54.391Z,99.90
2019-04-07T23:27:52.811Z,99.90
2019-04-07T23:30:24.317Z,99.90
2019-04-07T23:35:22.980Z,99.90
2019-04-07T23:37:52.314Z,99.90
2019-04-07T23:42:50.977Z,99.90
2019-04-07T23:47:50.361Z,99.90
2019-04-07T23:55:20.377Z,99.90
2019-04-07T23:57:52.183Z,99.90
